HFL33 ELLX-EDDF
Flight info
| Callsign | HFL33 |
|---|---|
| Flight time | N/A |
| Altitude | 23000 |
| Route | ASMOX Y891 LULAT Y890 KULZO T847 IMCOM IMCOM1D |
| Aircraft | A346/H-SDE2E3FGHIJ3J4J5M1RWXY/LB1D1 |
Departure
| Time | 2026-05-06 14:38 |
|---|---|
| Airport | Luxembourg-Findel International Airport (ELLX) |
Arrival
| Time | N/A |
|---|---|
| Airport | Frankfurt Main Airport (EDDF) |
| Time | Latitude | Longitude | Altitude | Speed | Heading |
|---|---|---|---|---|---|
| 2026-05-06 14:00 | 49.63674 | 6.22828 | 1204 ft | 0 kts | 87° |
| 2026-05-06 14:26 | 49.63674 | 6.22826 | 1204 ft | 2 kts | 87° |
| 2026-05-06 14:26 | 49.63673 | 6.22787 | 1204 ft | 4 kts | 87° |
| 2026-05-06 14:26 | 49.63672 | 6.22754 | 1204 ft | 4 kts | 96° |
| 2026-05-06 14:27 | 49.63678 | 6.22719 | 1204 ft | 4 kts | 120° |
| 2026-05-06 14:27 | 49.63694 | 6.22692 | 1204 ft | 4 kts | 147° |
| 2026-05-06 14:27 | 49.63716 | 6.22673 | 1204 ft | 4 kts | 152° |
| 2026-05-06 14:27 | 49.63723 | 6.22668 | 1204 ft | 0 kts | 150° |
| 2026-05-06 14:30 | 49.63722 | 6.22668 | 1204 ft | 0 kts | 150° |
| 2026-05-06 14:30 | 49.63707 | 6.22682 | 1204 ft | 9 kts | 150° |
| 2026-05-06 14:30 | 49.63631 | 6.22749 | 1204 ft | 8 kts | 150° |
| 2026-05-06 14:31 | 49.63580 | 6.22794 | 1205 ft | 7 kts | 150° |
| 2026-05-06 14:31 | 49.63574 | 6.22799 | 1205 ft | 1 kts | 150° |
| 2026-05-06 14:31 | 49.63566 | 6.22806 | 1205 ft | 0 kts | 150° |
| 2026-05-06 14:31 | 49.63562 | 6.22810 | 1205 ft | 0 kts | 150° |
| 2026-05-06 14:33 | 49.63521 | 6.22914 | 1207 ft | 24 kts | 92° |
| 2026-05-06 14:33 | 49.63589 | 6.23155 | 1208 ft | 22 kts | 61° |
| 2026-05-06 14:34 | 49.63650 | 6.23322 | 1209 ft | 12 kts | 60° |
| 2026-05-06 14:34 | 49.63663 | 6.23357 | 1209 ft | 3 kts | 62° |
| 2026-05-06 14:34 | 49.63673 | 6.23412 | 1209 ft | 9 kts | 88° |
| 2026-05-06 14:34 | 49.63658 | 6.23454 | 1212 ft | 0 kts | 151° |
| 2026-05-06 14:35 | 49.63659 | 6.23453 | 1212 ft | 0 kts | 151° |
| 2026-05-06 14:36 | 49.63635 | 6.23474 | 1216 ft | 15 kts | 150° |
| 2026-05-06 14:36 | 49.63578 | 6.23521 | 1235 ft | 3 kts | 155° |
| 2026-05-06 14:36 | 49.63532 | 6.23514 | 1236 ft | 0 kts | 221° |
| 2026-05-06 14:36 | 49.63528 | 6.23506 | 1234 ft | 2 kts | 227° |
| 2026-05-06 14:37 | 49.63474 | 6.23390 | 1242 ft | 42 kts | 239° |
| 2026-05-06 14:37 | 49.63200 | 6.22646 | 1230 ft | 114 kts | 240° |
| 2026-05-06 14:37 | 49.62696 | 6.21295 | 1227 ft | 171 kts | 241° |
| 2026-05-06 14:37 | 49.62001 | 6.19511 | 1459 ft | 201 kts | 240° |
| 2026-05-06 14:38 | 49.61035 | 6.17827 | 2181 ft | 211 kts | 211° |
| 2026-05-06 14:38 | 49.59629 | 6.17278 | 3046 ft | 213 kts | 174° |
| 2026-05-06 14:38 | 49.58174 | 6.18083 | 3652 ft | 229 kts | 140° |
| 2026-05-06 14:38 | 49.57126 | 6.20110 | 3871 ft | 260 kts | 111° |
| 2026-05-06 14:39 | 49.56815 | 6.22840 | 3841 ft | 266 kts | 82° |
| 2026-05-06 14:39 | 49.57441 | 6.25599 | 3828 ft | 261 kts | 51° |
| 2026-05-06 14:39 | 49.59037 | 6.27559 | 3832 ft | 257 kts | 18° |
| 2026-05-06 14:39 | 49.60824 | 6.27872 | 3829 ft | 255 kts | 352° |
| 2026-05-06 14:40 | 49.62657 | 6.27681 | 3814 ft | 255 kts | 7° |
| 2026-05-06 14:40 | 49.64423 | 6.28740 | 3823 ft | 258 kts | 33° |
| 2026-05-06 14:40 | 49.65942 | 6.30896 | 3830 ft | 260 kts | 48° |
| 2026-05-06 14:40 | 49.67184 | 6.33542 | 3823 ft | 262 kts | 56° |
| 2026-05-06 14:41 | 49.68250 | 6.36196 | 3821 ft | 263 kts | 53° |
| 2026-05-06 14:41 | 49.69574 | 6.38087 | 3817 ft | 259 kts | 25° |
| 2026-05-06 14:41 | 49.71309 | 6.38765 | 3823 ft | 257 kts | 358° |
| 2026-05-06 14:41 | 49.73057 | 6.38175 | 3838 ft | 258 kts | 339° |
| 2026-05-06 14:42 | 49.74712 | 6.37133 | 3825 ft | 255 kts | 336° |
| 2026-05-06 14:42 | 49.76352 | 6.36065 | 3826 ft | 255 kts | 337° |
| 2026-05-06 14:42 | 49.77990 | 6.35027 | 3818 ft | 255 kts | 338° |
| 2026-05-06 14:42 | 49.79648 | 6.34002 | 3813 ft | 256 kts | 338° |
| 2026-05-06 14:43 | 49.81295 | 6.32999 | 3826 ft | 255 kts | 339° |
| 2026-05-06 14:43 | 49.83007 | 6.31967 | 4216 ft | 265 kts | 338° |
| 2026-05-06 14:43 | 49.84716 | 6.30941 | 5404 ft | 260 kts | 338° |
| 2026-05-06 14:43 | 49.86398 | 6.29935 | 6479 ft | 261 kts | 337° |
| 2026-05-06 14:44 | 49.88116 | 6.28905 | 7208 ft | 268 kts | 337° |
| 2026-05-06 14:44 | 49.89934 | 6.28133 | 7648 ft | 275 kts | 354° |
| 2026-05-06 14:44 | 49.91844 | 6.28543 | 7831 ft | 282 kts | 19° |
| 2026-05-06 14:45 | 49.95418 | 6.31138 | 7806 ft | 284 kts | 24° |
| 2026-05-06 14:45 | 49.97188 | 6.32475 | 7812 ft | 282 kts | 24° |
| 2026-05-06 14:45 | 49.98962 | 6.33789 | 7816 ft | 282 kts | 23° |
| 2026-05-06 14:45 | 50.00744 | 6.35084 | 7811 ft | 282 kts | 22° |
| 2026-05-06 14:46 | 50.02538 | 6.36371 | 7814 ft | 281 kts | 23° |
| 2026-05-06 14:46 | 50.04303 | 6.37645 | 7825 ft | 278 kts | 22° |
| 2026-05-06 14:46 | 50.06051 | 6.38901 | 7813 ft | 277 kts | 22° |
| 2026-05-06 14:46 | 50.07785 | 6.40214 | 7814 ft | 278 kts | 27° |
| 2026-05-06 14:47 | 50.09439 | 6.41855 | 7790 ft | 286 kts | 35° |
| 2026-05-06 14:47 | 50.11018 | 6.43814 | 7795 ft | 293 kts | 38° |
| 2026-05-06 14:47 | 50.12569 | 6.45866 | 7794 ft | 293 kts | 39° |
| 2026-05-06 14:47 | 50.14103 | 6.47914 | 7793 ft | 293 kts | 39° |
| 2026-05-06 14:48 | 50.15655 | 6.49977 | 7794 ft | 293 kts | 39° |
| 2026-05-06 14:48 | 50.17167 | 6.51976 | 7794 ft | 294 kts | 39° |
| 2026-05-06 14:48 | 50.18726 | 6.54031 | 7795 ft | 294 kts | 39° |
| 2026-05-06 14:48 | 50.20307 | 6.56111 | 7796 ft | 294 kts | 39° |
| 2026-05-06 14:49 | 50.21870 | 6.58169 | 7800 ft | 294 kts | 39° |
| 2026-05-06 14:49 | 50.23416 | 6.60204 | 7810 ft | 294 kts | 39° |
| 2026-05-06 14:49 | 50.24976 | 6.62262 | 7807 ft | 292 kts | 39° |
| 2026-05-06 14:49 | 50.26525 | 6.64305 | 7804 ft | 292 kts | 38° |
| 2026-05-06 14:50 | 50.28105 | 6.66391 | 7798 ft | 292 kts | 38° |
| 2026-05-06 14:50 | 50.29581 | 6.68339 | 7800 ft | 292 kts | 39° |
| 2026-05-06 14:50 | 50.31276 | 6.70580 | 7806 ft | 292 kts | 38° |
| 2026-05-06 14:50 | 50.32795 | 6.72605 | 7814 ft | 292 kts | 41° |
| 2026-05-06 14:51 | 50.33995 | 6.75256 | 7791 ft | 293 kts | 70° |
| 2026-05-06 14:51 | 50.34261 | 6.78417 | 7806 ft | 293 kts | 95° |
| 2026-05-06 14:51 | 50.34038 | 6.81598 | 7813 ft | 293 kts | 98° |
| 2026-05-06 14:51 | 50.33734 | 6.84747 | 7811 ft | 292 kts | 103° |
| 2026-05-06 14:52 | 50.33178 | 6.87787 | 7797 ft | 290 kts | 113° |
| 2026-05-06 14:52 | 50.32382 | 6.90618 | 7807 ft | 290 kts | 117° |
| 2026-05-06 14:52 | 50.31518 | 6.93407 | 7806 ft | 290 kts | 118° |
| 2026-05-06 14:52 | 50.30645 | 6.96235 | 7806 ft | 289 kts | 118° |
| 2026-05-06 14:53 | 50.29767 | 6.99110 | 7803 ft | 289 kts | 118° |
| 2026-05-06 14:53 | 50.28903 | 7.01972 | 7802 ft | 289 kts | 118° |
| 2026-05-06 14:53 | 50.28050 | 7.04821 | 7801 ft | 289 kts | 118° |
| 2026-05-06 14:53 | 50.27204 | 7.07654 | 7799 ft | 289 kts | 118° |
| 2026-05-06 14:54 | 50.26350 | 7.10514 | 7799 ft | 290 kts | 118° |
| 2026-05-06 14:54 | 50.25506 | 7.13334 | 7804 ft | 290 kts | 118° |
| 2026-05-06 14:54 | 50.24654 | 7.16178 | 7801 ft | 289 kts | 118° |
| 2026-05-06 14:54 | 50.24079 | 7.18096 | 7800 ft | 289 kts | 118° |
| 2026-05-06 14:55 | 50.22956 | 7.21835 | 7802 ft | 289 kts | 118° |
| 2026-05-06 14:55 | 50.22103 | 7.24674 | 7801 ft | 289 kts | 118° |
| 2026-05-06 14:55 | 50.21245 | 7.27521 | 7804 ft | 289 kts | 118° |
| 2026-05-06 14:55 | 50.20395 | 7.30336 | 7802 ft | 289 kts | 118° |
| 2026-05-06 14:56 | 50.19573 | 7.33156 | 7804 ft | 290 kts | 115° |
| 2026-05-06 14:56 | 50.19074 | 7.35143 | 7801 ft | 290 kts | 113° |
| 2026-05-06 14:56 | 50.18367 | 7.38099 | 7793 ft | 290 kts | 113° |
| 2026-05-06 14:56 | 50.17671 | 7.41055 | 7809 ft | 290 kts | 113° |
| 2026-05-06 14:57 | 50.16981 | 7.43971 | 7794 ft | 289 kts | 113° |
| 2026-05-06 14:57 | 50.16281 | 7.46921 | 7793 ft | 289 kts | 113° |
| 2026-05-06 14:57 | 50.15581 | 7.49857 | 7793 ft | 290 kts | 113° |
| 2026-05-06 14:57 | 50.14871 | 7.52828 | 7808 ft | 290 kts | 113° |
| 2026-05-06 14:58 | 50.14164 | 7.55774 | 7807 ft | 290 kts | 113° |
| 2026-05-06 14:58 | 50.13443 | 7.58768 | 7793 ft | 289 kts | 113° |
| 2026-05-06 14:58 | 50.12737 | 7.61702 | 7756 ft | 285 kts | 113° |
| 2026-05-06 14:58 | 50.12042 | 7.64596 | 7363 ft | 286 kts | 113° |
| 2026-05-06 14:59 | 50.11343 | 7.67499 | 7007 ft | 286 kts | 112° |
| 2026-05-06 14:59 | 50.10720 | 7.70441 | 6800 ft | 283 kts | 110° |
| 2026-05-06 14:59 | 50.10145 | 7.73400 | 6799 ft | 285 kts | 110° |
| 2026-05-06 14:59 | 50.09571 | 7.76371 | 6795 ft | 286 kts | 109° |
| 2026-05-06 15:00 | 50.08984 | 7.79398 | 6794 ft | 286 kts | 109° |
| 2026-05-06 15:00 | 50.08410 | 7.82353 | 6800 ft | 285 kts | 109° |
| 2026-05-06 15:00 | 50.08023 | 7.85390 | 6785 ft | 287 kts | 93° |
| 2026-05-06 15:00 | 50.08307 | 7.88478 | 6792 ft | 291 kts | 74° |
| 2026-05-06 15:01 | 50.09007 | 7.91456 | 6796 ft | 292 kts | 69° |
| 2026-05-06 15:01 | 50.09768 | 7.94362 | 6797 ft | 292 kts | 69° |
| 2026-05-06 15:01 | 50.10535 | 7.97301 | 6794 ft | 292 kts | 69° |
| 2026-05-06 15:01 | 50.11285 | 8.00246 | 6797 ft | 292 kts | 70° |
| 2026-05-06 15:02 | 50.12012 | 8.03161 | 6794 ft | 291 kts | 70° |
| 2026-05-06 15:02 | 50.12738 | 8.06108 | 6771 ft | 287 kts | 70° |
| 2026-05-06 15:02 | 50.13459 | 8.09052 | 6403 ft | 289 kts | 70° |
| 2026-05-06 15:02 | 50.14161 | 8.11937 | 6065 ft | 288 kts | 70° |
| 2026-05-06 15:03 | 50.14880 | 8.14897 | 5785 ft | 285 kts | 70° |
| 2026-05-06 15:03 | 50.15590 | 8.17818 | 5786 ft | 288 kts | 70° |
| 2026-05-06 15:03 | 50.16291 | 8.20722 | 5791 ft | 288 kts | 70° |
| 2026-05-06 15:03 | 50.17013 | 8.23700 | 5806 ft | 289 kts | 70° |
| 2026-05-06 15:04 | 50.17736 | 8.26698 | 5788 ft | 288 kts | 70° |
| 2026-05-06 15:04 | 50.18434 | 8.29592 | 5777 ft | 287 kts | 70° |
| 2026-05-06 15:04 | 50.19129 | 8.32505 | 5780 ft | 287 kts | 73° |
| 2026-05-06 15:04 | 50.19385 | 8.35551 | 5767 ft | 282 kts | 99° |
| 2026-05-06 15:05 | 50.18801 | 8.38424 | 5763 ft | 276 kts | 123° |
| 2026-05-06 15:05 | 50.17565 | 8.40709 | 5777 ft | 272 kts | 145° |
| 2026-05-06 15:05 | 50.15924 | 8.42113 | 5807 ft | 267 kts | 166° |
| 2026-05-06 15:05 | 50.14130 | 8.42569 | 5732 ft | 257 kts | 182° |
| 2026-05-06 15:06 | 50.12385 | 8.42129 | 5232 ft | 254 kts | 202° |
| 2026-05-06 15:06 | 50.10881 | 8.40713 | 4810 ft | 252 kts | 224° |
| 2026-05-06 15:06 | 50.09825 | 8.38527 | 4814 ft | 252 kts | 245° |
| 2026-05-06 15:06 | 50.09180 | 8.36029 | 4562 ft | 247 kts | 249° |
| 2026-05-06 15:07 | 50.08599 | 8.33478 | 4006 ft | 251 kts | 250° |
| 2026-05-06 15:07 | 50.08011 | 8.30925 | 3793 ft | 250 kts | 250° |
| 2026-05-06 15:07 | 50.07407 | 8.28344 | 3794 ft | 251 kts | 249° |
| 2026-05-06 15:07 | 50.06771 | 8.25680 | 3805 ft | 252 kts | 249° |
| 2026-05-06 15:08 | 50.06155 | 8.23130 | 3804 ft | 252 kts | 249° |
| 2026-05-06 15:08 | 50.05533 | 8.20571 | 3798 ft | 252 kts | 249° |
| 2026-05-06 15:08 | 50.04909 | 8.18009 | 3793 ft | 250 kts | 249° |
| 2026-05-06 15:08 | 50.04290 | 8.15472 | 3794 ft | 251 kts | 249° |
| 2026-05-06 15:09 | 50.03668 | 8.12919 | 3793 ft | 249 kts | 249° |
| 2026-05-06 15:09 | 50.03053 | 8.10411 | 3786 ft | 250 kts | 249° |
| 2026-05-06 15:09 | 50.02431 | 8.07862 | 3796 ft | 251 kts | 249° |
| 2026-05-06 15:09 | 50.01813 | 8.05333 | 3793 ft | 251 kts | 249° |
| 2026-05-06 15:10 | 50.01196 | 8.02806 | 3758 ft | 247 kts | 249° |
| 2026-05-06 15:10 | 50.00582 | 8.00293 | 3407 ft | 248 kts | 249° |
| 2026-05-06 15:10 | 49.99963 | 7.97777 | 3067 ft | 248 kts | 250° |
| 2026-05-06 15:10 | 49.99352 | 7.95296 | 2803 ft | 245 kts | 250° |
| 2026-05-06 15:11 | 49.98740 | 7.92812 | 2794 ft | 248 kts | 251° |
| 2026-05-06 15:11 | 49.98126 | 7.90293 | 2791 ft | 249 kts | 251° |
| 2026-05-06 15:11 | 49.97486 | 7.87740 | 2794 ft | 249 kts | 247° |
| 2026-05-06 15:11 | 49.96451 | 7.85582 | 2770 ft | 256 kts | 218° |
| 2026-05-06 15:12 | 49.94807 | 7.84469 | 2782 ft | 258 kts | 191° |
| 2026-05-06 15:12 | 49.93074 | 7.84749 | 2775 ft | 249 kts | 159° |
| 2026-05-06 15:12 | 49.91573 | 7.85942 | 2783 ft | 237 kts | 147° |
| 2026-05-06 15:12 | 49.90516 | 7.87812 | 2778 ft | 241 kts | 115° |
| 2026-05-06 15:13 | 49.90155 | 7.90413 | 2791 ft | 242 kts | 94° |
| 2026-05-06 15:13 | 49.90180 | 7.93010 | 2783 ft | 242 kts | 82° |
| 2026-05-06 15:13 | 49.90560 | 7.95555 | 2790 ft | 243 kts | 69° |
| 2026-05-06 15:13 | 49.91221 | 7.98021 | 2791 ft | 243 kts | 65° |
| 2026-05-06 15:14 | 49.91897 | 8.00361 | 2632 ft | 239 kts | 65° |
| 2026-05-06 15:14 | 49.92546 | 8.02738 | 2346 ft | 238 kts | 64° |
| 2026-05-06 15:14 | 49.93153 | 8.05107 | 1910 ft | 235 kts | 65° |
| 2026-05-06 15:14 | 49.93721 | 8.07445 | 1761 ft | 222 kts | 66° |
| 2026-05-06 15:15 | 49.94255 | 8.09699 | 1723 ft | 223 kts | 66° |
| 2026-05-06 15:15 | 49.94761 | 8.11916 | 1545 ft | 212 kts | 67° |
| 2026-05-06 15:15 | 49.95189 | 8.13952 | 1681 ft | 199 kts | 67° |
| 2026-05-06 15:15 | 49.95690 | 8.16053 | 2194 ft | 216 kts | 65° |
| 2026-05-06 15:16 | 49.96072 | 8.18405 | 2664 ft | 236 kts | 89° |
| 2026-05-06 15:16 | 49.95735 | 8.20958 | 3302 ft | 244 kts | 110° |
| 2026-05-06 15:16 | 49.95034 | 8.23279 | 4050 ft | 229 kts | 135° |
| 2026-05-06 15:16 | 49.93849 | 8.24886 | 4609 ft | 225 kts | 149° |
| 2026-05-06 15:17 | 49.92534 | 8.26197 | 4850 ft | 225 kts | 154° |
| 2026-05-06 15:17 | 49.91073 | 8.26950 | 4761 ft | 216 kts | 186° |
| 2026-05-06 15:17 | 49.89664 | 8.26386 | 4788 ft | 212 kts | 208° |
| 2026-05-06 15:17 | 49.88461 | 8.25057 | 4761 ft | 212 kts | 236° |
| 2026-05-06 15:18 | 49.87811 | 8.23010 | 4807 ft | 213 kts | 250° |
| 2026-05-06 15:18 | 49.87372 | 8.20863 | 4803 ft | 212 kts | 253° |
| 2026-05-06 15:18 | 49.86957 | 8.18668 | 4792 ft | 212 kts | 251° |
| 2026-05-06 15:18 | 49.86473 | 8.16501 | 4801 ft | 212 kts | 249° |
| 2026-05-06 15:19 | 49.85955 | 8.14352 | 4794 ft | 212 kts | 248° |
| 2026-05-06 15:19 | 49.85437 | 8.12216 | 4807 ft | 212 kts | 248° |
| 2026-05-06 15:19 | 49.84911 | 8.10070 | 4795 ft | 212 kts | 248° |
| 2026-05-06 15:19 | 49.84381 | 8.07924 | 4784 ft | 213 kts | 248° |
| 2026-05-06 15:20 | 49.83889 | 8.05764 | 4781 ft | 212 kts | 255° |
| 2026-05-06 15:20 | 49.83797 | 8.03507 | 4569 ft | 212 kts | 280° |
| 2026-05-06 15:20 | 49.84322 | 8.01348 | 4218 ft | 216 kts | 300° |
| 2026-05-06 15:20 | 49.85404 | 7.99698 | 3875 ft | 222 kts | 324° |
| 2026-05-06 15:21 | 49.86836 | 7.98846 | 3586 ft | 226 kts | 350° |
| 2026-05-06 15:21 | 49.88374 | 7.98619 | 3349 ft | 223 kts | 352° |
| 2026-05-06 15:21 | 49.89949 | 7.98538 | 3025 ft | 226 kts | 8° |
| 2026-05-06 15:21 | 49.91376 | 7.99564 | 2727 ft | 231 kts | 42° |
| 2026-05-06 15:22 | 49.92517 | 8.02604 | 2469 ft | 219 kts | 64° |
| 2026-05-06 15:22 | 49.93351 | 8.05921 | 2106 ft | 199 kts | 65° |
| 2026-05-06 15:22 | 49.93884 | 8.08164 | 1723 ft | 178 kts | 64° |
| 2026-05-06 15:22 | 49.94302 | 8.09931 | 1821 ft | 167 kts | 65° |
| 2026-05-06 15:23 | 49.94700 | 8.11624 | 1828 ft | 165 kts | 64° |
| 2026-05-06 15:23 | 49.95097 | 8.13296 | 1819 ft | 164 kts | 65° |
| 2026-05-06 15:23 | 49.95489 | 8.14975 | 1804 ft | 166 kts | 64° |
| 2026-05-06 15:23 | 49.95879 | 8.16641 | 1783 ft | 165 kts | 65° |
| 2026-05-06 15:24 | 49.96281 | 8.18364 | 2045 ft | 171 kts | 69° |
| 2026-05-06 15:24 | 49.96385 | 8.20163 | 2734 ft | 169 kts | 105° |
| 2026-05-06 15:24 | 49.95857 | 8.21779 | 3296 ft | 167 kts | 126° |
| 2026-05-06 15:24 | 49.95214 | 8.23312 | 3696 ft | 170 kts | 129° |
| 2026-05-06 15:25 | 49.94563 | 8.24851 | 3791 ft | 171 kts | 128° |
| 2026-05-06 15:25 | 49.93905 | 8.26390 | 3791 ft | 171 kts | 129° |
| 2026-05-06 15:25 | 49.93216 | 8.27885 | 3799 ft | 169 kts | 133° |
| 2026-05-06 15:25 | 49.92471 | 8.29270 | 3798 ft | 166 kts | 134° |
| 2026-05-06 15:26 | 49.91662 | 8.30459 | 3762 ft | 158 kts | 164° |
| 2026-05-06 15:26 | 49.90631 | 8.30460 | 3768 ft | 151 kts | 208° |
| 2026-05-06 15:26 | 49.89897 | 8.29291 | 3779 ft | 154 kts | 237° |
| 2026-05-06 15:26 | 49.89411 | 8.27812 | 3779 ft | 154 kts | 244° |
| 2026-05-06 15:27 | 49.89002 | 8.26267 | 3802 ft | 154 kts | 246° |
| 2026-05-06 15:27 | 49.88592 | 8.24720 | 3827 ft | 155 kts | 246° |
| 2026-05-06 15:27 | 49.88176 | 8.23181 | 3786 ft | 154 kts | 246° |
| 2026-05-06 15:27 | 49.87762 | 8.21637 | 3781 ft | 154 kts | 246° |
| 2026-05-06 15:28 | 49.87364 | 8.20086 | 3775 ft | 155 kts | 252° |
| 2026-05-06 15:28 | 49.87234 | 8.18406 | 3777 ft | 162 kts | 281° |
| 2026-05-06 15:28 | 49.87746 | 8.16785 | 3833 ft | 167 kts | 302° |
| 2026-05-06 15:28 | 49.88497 | 8.15392 | 3795 ft | 168 kts | 307° |
| 2026-05-06 15:29 | 49.89294 | 8.14054 | 3792 ft | 168 kts | 308° |
| 2026-05-06 15:29 | 49.90091 | 8.12732 | 3784 ft | 168 kts | 308° |
| 2026-05-06 15:29 | 49.90891 | 8.11401 | 3787 ft | 168 kts | 308° |
| 2026-05-06 15:29 | 49.91680 | 8.10079 | 3795 ft | 167 kts | 308° |
| 2026-05-06 15:30 | 49.92459 | 8.08761 | 3796 ft | 167 kts | 308° |
| 2026-05-06 15:30 | 49.93294 | 8.07463 | 3793 ft | 167 kts | 312° |
| 2026-05-06 15:30 | 49.94240 | 8.06434 | 3784 ft | 172 kts | 336° |
| 2026-05-06 15:30 | 49.95431 | 8.06043 | 3799 ft | 175 kts | 344° |
| 2026-05-06 15:31 | 49.96619 | 8.05702 | 3788 ft | 175 kts | 343° |
| 2026-05-06 15:31 | 49.97796 | 8.05338 | 3790 ft | 175 kts | 343° |
| 2026-05-06 15:31 | 49.98971 | 8.04953 | 3795 ft | 175 kts | 343° |
| 2026-05-06 15:32 | 50.01375 | 8.04998 | 3798 ft | 182 kts | 18° |
| 2026-05-06 15:32 | 50.02483 | 8.05957 | 3765 ft | 187 kts | 37° |
| 2026-05-06 15:32 | 50.03435 | 8.07448 | 3779 ft | 187 kts | 47° |
| 2026-05-06 15:32 | 50.04319 | 8.09013 | 3777 ft | 182 kts | 49° |
| 2026-05-06 15:33 | 50.05171 | 8.10568 | 3802 ft | 187 kts | 49° |
| 2026-05-06 15:33 | 50.06023 | 8.12160 | 3853 ft | 187 kts | 49° |
| 2026-05-06 15:33 | 50.06888 | 8.13783 | 3809 ft | 187 kts | 49° |
| 2026-05-06 15:33 | 50.07727 | 8.15377 | 3804 ft | 186 kts | 49° |
| 2026-05-06 15:34 | 50.08617 | 8.17067 | 3797 ft | 187 kts | 49° |
| 2026-05-06 15:34 | 50.09573 | 8.18905 | 3808 ft | 189 kts | 49° |
| 2026-05-06 15:34 | 50.10560 | 8.20796 | 3795 ft | 187 kts | 50° |
| 2026-05-06 15:34 | 50.11522 | 8.22621 | 3790 ft | 187 kts | 49° |
| 2026-05-06 15:35 | 50.12365 | 8.24225 | 3790 ft | 188 kts | 49° |
| 2026-05-06 15:35 | 50.13155 | 8.25893 | 3804 ft | 187 kts | 57° |
| 2026-05-06 15:35 | 50.13803 | 8.27908 | 3772 ft | 184 kts | 70° |
| 2026-05-06 15:35 | 50.14368 | 8.30464 | 3451 ft | 182 kts | 73° |
| 2026-05-06 15:36 | 50.15016 | 8.33785 | 2895 ft | 183 kts | 73° |
| 2026-05-06 15:36 | 50.15541 | 8.36645 | 2807 ft | 180 kts | 73° |
| 2026-05-06 15:36 | 50.15883 | 8.38545 | 2807 ft | 182 kts | 73° |
| 2026-05-06 15:36 | 50.16242 | 8.40603 | 2784 ft | 183 kts | 73° |
| 2026-05-06 15:37 | 50.16699 | 8.42911 | 2790 ft | 182 kts | 69° |
| 2026-05-06 15:37 | 50.17349 | 8.45765 | 2801 ft | 182 kts | 69° |
| 2026-05-06 15:37 | 50.18013 | 8.48575 | 2795 ft | 180 kts | 68° |
| 2026-05-06 15:37 | 50.18479 | 8.50502 | 2809 ft | 184 kts | 69° |
| 2026-05-06 15:38 | 50.18943 | 8.52416 | 2813 ft | 183 kts | 68° |
| 2026-05-06 15:38 | 50.19526 | 8.54896 | 2793 ft | 185 kts | 68° |
| 2026-05-06 15:38 | 50.20059 | 8.57265 | 2792 ft | 182 kts | 68° |
| 2026-05-06 15:38 | 50.20501 | 8.59241 | 2758 ft | 182 kts | 69° |
| 2026-05-06 15:39 | 50.21004 | 8.61469 | 2807 ft | 181 kts | 69° |
| 2026-05-06 15:39 | 50.21646 | 8.64266 | 2806 ft | 182 kts | 68° |
| 2026-05-06 15:39 | 50.22277 | 8.67029 | 2798 ft | 184 kts | 68° |
| 2026-05-06 15:39 | 50.22796 | 8.69319 | 2796 ft | 183 kts | 69° |
| 2026-05-06 15:40 | 50.23273 | 8.71417 | 2777 ft | 182 kts | 69° |
| 2026-05-06 15:40 | 50.23766 | 8.73672 | 2777 ft | 183 kts | 69° |
| 2026-05-06 15:40 | 50.24201 | 8.75650 | 2788 ft | 183 kts | 70° |
| 2026-05-06 15:40 | 50.24781 | 8.78249 | 2785 ft | 180 kts | 70° |
| 2026-05-06 15:41 | 50.25216 | 8.80163 | 2783 ft | 182 kts | 69° |
| 2026-05-06 15:41 | 50.25636 | 8.82061 | 2784 ft | 182 kts | 72° |
| 2026-05-06 15:41 | 50.25839 | 8.84112 | 2771 ft | 181 kts | 95° |
| 2026-05-06 15:41 | 50.25633 | 8.86145 | 2783 ft | 181 kts | 102° |
| 2026-05-06 15:42 | 50.25369 | 8.88146 | 2763 ft | 180 kts | 103° |
| 2026-05-06 15:42 | 50.25056 | 8.90364 | 2790 ft | 180 kts | 104° |
| 2026-05-06 15:42 | 50.24730 | 8.92746 | 2772 ft | 184 kts | 103° |
| 2026-05-06 15:42 | 50.24406 | 8.94861 | 2779 ft | 182 kts | 112° |
| 2026-05-06 15:43 | 50.23778 | 8.96581 | 2792 ft | 179 kts | 129° |
| 2026-05-06 15:43 | 50.22952 | 8.98025 | 2773 ft | 176 kts | 144° |
| 2026-05-06 15:43 | 50.21952 | 8.99115 | 2775 ft | 175 kts | 151° |
| 2026-05-06 15:43 | 50.20919 | 9.00074 | 2779 ft | 175 kts | 154° |
| 2026-05-06 15:44 | 50.19849 | 9.01058 | 2767 ft | 174 kts | 158° |
| 2026-05-06 15:44 | 50.18707 | 9.01565 | 2757 ft | 170 kts | 182° |
| 2026-05-06 15:44 | 50.17568 | 9.01340 | 2773 ft | 166 kts | 199° |
| 2026-05-06 15:44 | 50.16605 | 9.00445 | 2794 ft | 158 kts | 226° |
| 2026-05-06 15:45 | 50.15860 | 8.99182 | 2786 ft | 160 kts | 233° |
| 2026-05-06 15:45 | 50.15239 | 8.97757 | 2775 ft | 154 kts | 242° |
| 2026-05-06 15:45 | 50.14767 | 8.96293 | 2737 ft | 148 kts | 249° |
| 2026-05-06 15:45 | 50.14424 | 8.94817 | 2398 ft | 148 kts | 253° |
| 2026-05-06 15:46 | 50.14096 | 8.93256 | 2019 ft | 149 kts | 253° |
| 2026-05-06 15:46 | 50.13768 | 8.91727 | 1773 ft | 147 kts | 254° |
| 2026-05-06 15:46 | 50.13441 | 8.90232 | 1862 ft | 148 kts | 253° |
| 2026-05-06 15:46 | 50.13099 | 8.88712 | 1932 ft | 150 kts | 253° |
| 2026-05-06 15:47 | 50.12752 | 8.87167 | 1874 ft | 150 kts | 253° |
| 2026-05-06 15:47 | 50.12415 | 8.85629 | 1815 ft | 149 kts | 253° |